sensor_id;sensor_type;location;lat;lon;timestamp;P1;durP1;ratioP1;P2;durP2;ratioP2
48522;SDS011;34315;50.150;11.070;2023-12-04T00:01:00;15.52;;;7.40;;
48522;SDS011;34315;50.150;11.070;2023-12-04T00:06:01;20.02;;;8.02;;
48522;SDS011;34315;50.150;11.070;2023-12-04T00:11:02;18.98;;;7.72;;
48522;SDS011;34315;50.150;11.070;2023-12-04T00:16:04;17.48;;;8.30;;
48522;SDS011;34315;50.150;11.070;2023-12-04T00:21:06;21.20;;;8.05;;
48522;SDS011;34315;50.150;11.070;2023-12-04T00:26:07;17.40;;;7.38;;
48522;SDS011;34315;50.150;11.070;2023-12-04T00:31:09;17.17;;;7.97;;
48522;SDS011;34315;50.150;11.070;2023-12-04T00:36:11;19.00;;;8.57;;
48522;SDS011;34315;50.150;11.070;2023-12-04T00:41:12;15.10;;;7.18;;
48522;SDS011;34315;50.150;11.070;2023-12-04T00:46:13;21.83;;;9.07;;
48522;SDS011;34315;50.150;11.070;2023-12-04T00:51:14;15.90;;;7.35;;
48522;SDS011;34315;50.150;11.070;2023-12-04T00:56:15;19.23;;;8.50;;
48522;SDS011;34315;50.150;11.070;2023-12-04T01:01:17;17.98;;;7.53;;
48522;SDS011;34315;50.150;11.070;2023-12-04T01:06:24;17.30;;;8.30;;
48522;SDS011;34315;50.150;11.070;2023-12-04T01:11:26;19.00;;;8.00;;
48522;SDS011;34315;50.150;11.070;2023-12-04T01:16:27;17.73;;;8.15;;
48522;SDS011;34315;50.150;11.070;2023-12-04T01:21:29;20.25;;;8.52;;
48522;SDS011;34315;50.150;11.070;2023-12-04T01:26:30;18.00;;;8.43;;
48522;SDS011;34315;50.150;11.070;2023-12-04T01:31:31;20.35;;;8.88;;
48522;SDS011;34315;50.150;11.070;2023-12-04T01:36:32;19.73;;;7.88;;
48522;SDS011;34315;50.150;11.070;2023-12-04T01:41:33;20.23;;;8.95;;
48522;SDS011;34315;50.150;11.070;2023-12-04T01:46:34;18.20;;;8.10;;
48522;SDS011;34315;50.150;11.070;2023-12-04T01:51:35;20.88;;;9.80;;
48522;SDS011;34315;50.150;11.070;2023-12-04T01:56:37;16.90;;;8.95;;
48522;SDS011;34315;50.150;11.070;2023-12-04T02:01:38;14.65;;;7.30;;
48522;SDS011;34315;50.150;11.070;2023-12-04T02:06:42;17.35;;;8.82;;
48522;SDS011;34315;50.150;11.070;2023-12-04T02:11:44;20.27;;;8.20;;
48522;SDS011;34315;50.150;11.070;2023-12-04T02:16:45;18.85;;;8.88;;
48522;SDS011;34315;50.150;11.070;2023-12-04T02:21:46;22.33;;;8.68;;
48522;SDS011;34315;50.150;11.070;2023-12-04T02:26:52;19.48;;;8.18;;
48522;SDS011;34315;50.150;11.070;2023-12-04T02:31:54;17.80;;;7.28;;
48522;SDS011;34315;50.150;11.070;2023-12-04T02:36:55;18.73;;;8.65;;
48522;SDS011;34315;50.150;11.070;2023-12-04T02:41:57;18.15;;;8.73;;
48522;SDS011;34315;50.150;11.070;2023-12-04T02:46:58;23.23;;;8.68;;
48522;SDS011;34315;50.150;11.070;2023-12-04T02:51:59;18.23;;;8.20;;
48522;SDS011;34315;50.150;11.070;2023-12-04T02:57:00;18.02;;;8.82;;
48522;SDS011;34315;50.150;11.070;2023-12-04T03:02:02;19.17;;;8.00;;
48522;SDS011;34315;50.150;11.070;2023-12-04T03:07:03;16.15;;;7.65;;
48522;SDS011;34315;50.150;11.070;2023-12-04T03:12:04;18.30;;;7.60;;
48522;SDS011;34315;50.150;11.070;2023-12-04T03:17:05;18.97;;;8.83;;
48522;SDS011;34315;50.150;11.070;2023-12-04T03:22:07;24.23;;;11.00;;
48522;SDS011;34315;50.150;11.070;2023-12-04T03:27:08;23.45;;;9.02;;
48522;SDS011;34315;50.150;11.070;2023-12-04T03:32:09;15.02;;;7.85;;
48522;SDS011;34315;50.150;11.070;2023-12-04T03:37:10;18.27;;;8.30;;
48522;SDS011;34315;50.150;11.070;2023-12-04T03:42:11;18.73;;;8.05;;
48522;SDS011;34315;50.150;11.070;2023-12-04T03:47:12;18.15;;;8.05;;
48522;SDS011;34315;50.150;11.070;2023-12-04T03:52:13;16.90;;;8.05;;
48522;SDS011;34315;50.150;11.070;2023-12-04T03:57:14;15.52;;;8.00;;
48522;SDS011;34315;50.150;11.070;2023-12-04T04:02:15;19.15;;;8.43;;
48522;SDS011;34315;50.150;11.070;2023-12-04T04:07:16;17.45;;;7.97;;
48522;SDS011;34315;50.150;11.070;2023-12-04T04:12:18;19.70;;;8.43;;
48522;SDS011;34315;50.150;11.070;2023-12-04T04:17:19;16.17;;;8.05;;
48522;SDS011;34315;50.150;11.070;2023-12-04T04:22:20;15.20;;;7.30;;
48522;SDS011;34315;50.150;11.070;2023-12-04T04:27:21;18.67;;;7.70;;
48522;SDS011;34315;50.150;11.070;2023-12-04T04:32:22;18.38;;;7.72;;
48522;SDS011;34315;50.150;11.070;2023-12-04T04:37:23;18.35;;;8.52;;
48522;SDS011;34315;50.150;11.070;2023-12-04T04:42:25;21.48;;;8.25;;
48522;SDS011;34315;50.150;11.070;2023-12-04T04:47:26;17.85;;;7.88;;
48522;SDS011;34315;50.150;11.070;2023-12-04T04:52:27;16.05;;;8.00;;
48522;SDS011;34315;50.150;11.070;2023-12-04T04:57:28;22.80;;;8.93;;
48522;SDS011;34315;50.150;11.070;2023-12-04T05:02:29;18.70;;;8.32;;
48522;SDS011;34315;50.150;11.070;2023-12-04T05:07:30;18.80;;;8.38;;
48522;SDS011;34315;50.150;11.070;2023-12-04T05:12:31;18.48;;;9.25;;
48522;SDS011;34315;50.150;11.070;2023-12-04T05:17:32;18.75;;;8.43;;
48522;SDS011;34315;50.150;11.070;2023-12-04T05:22:37;23.88;;;9.63;;
48522;SDS011;34315;50.150;11.070;2023-12-04T05:27:38;19.15;;;8.75;;
48522;SDS011;34315;50.150;11.070;2023-12-04T05:32:39;16.42;;;8.73;;
48522;SDS011;34315;50.150;11.070;2023-12-04T05:37:40;20.05;;;8.18;;
48522;SDS011;34315;50.150;11.070;2023-12-04T05:42:41;22.60;;;8.93;;
48522;SDS011;34315;50.150;11.070;2023-12-04T05:47:43;20.17;;;8.93;;
48522;SDS011;34315;50.150;11.070;2023-12-04T05:52:44;19.60;;;9.27;;
48522;SDS011;34315;50.150;11.070;2023-12-04T05:57:46;15.63;;;8.02;;
48522;SDS011;34315;50.150;11.070;2023-12-04T06:02:47;19.13;;;9.25;;
48522;SDS011;34315;50.150;11.070;2023-12-04T06:07:48;18.88;;;8.93;;
48522;SDS011;34315;50.150;11.070;2023-12-04T06:12:50;24.73;;;9.10;;
48522;SDS011;34315;50.150;11.070;2023-12-04T06:17:52;19.02;;;8.20;;
48522;SDS011;34315;50.150;11.070;2023-12-04T06:22:54;20.05;;;9.13;;
48522;SDS011;34315;50.150;11.070;2023-12-04T06:27:55;19.88;;;9.63;;
48522;SDS011;34315;50.150;11.070;2023-12-04T06:32:57;18.40;;;8.65;;
48522;SDS011;34315;50.150;11.070;2023-12-04T06:37:59;17.70;;;8.18;;
48522;SDS011;34315;50.150;11.070;2023-12-04T06:43:07;22.13;;;9.30;;
48522;SDS011;34315;50.150;11.070;2023-12-04T06:48:10;20.17;;;9.60;;
48522;SDS011;34315;50.150;11.070;2023-12-04T06:53:13;22.58;;;9.40;;
48522;SDS011;34315;50.150;11.070;2023-12-04T06:58:15;25.30;;;9.48;;
48522;SDS011;34315;50.150;11.070;2023-12-04T07:03:16;21.15;;;8.70;;
48522;SDS011;34315;50.150;11.070;2023-12-04T07:08:17;21.27;;;9.88;;
48522;SDS011;34315;50.150;11.070;2023-12-04T07:13:18;19.83;;;9.15;;
48522;SDS011;34315;50.150;11.070;2023-12-04T07:18:19;26.88;;;12.10;;
48522;SDS011;34315;50.150;11.070;2023-12-04T07:23:21;19.58;;;9.77;;
48522;SDS011;34315;50.150;11.070;2023-12-04T07:28:22;20.08;;;9.90;;
48522;SDS011;34315;50.150;11.070;2023-12-04T07:33:23;22.73;;;9.80;;
48522;SDS011;34315;50.150;11.070;2023-12-04T07:38:24;18.50;;;9.80;;
48522;SDS011;34315;50.150;11.070;2023-12-04T07:43:25;20.52;;;9.48;;
48522;SDS011;34315;50.150;11.070;2023-12-04T07:48:26;22.02;;;10.63;;
48522;SDS011;34315;50.150;11.070;2023-12-04T07:53:27;24.15;;;11.48;;
48522;SDS011;34315;50.150;11.070;2023-12-04T07:58:28;23.23;;;11.57;;
48522;SDS011;34315;50.150;11.070;2023-12-04T08:03:30;26.55;;;12.45;;
48522;SDS011;34315;50.150;11.070;2023-12-04T08:08:31;27.23;;;12.40;;
48522;SDS011;34315;50.150;11.070;2023-12-04T08:13:32;24.42;;;11.55;;
48522;SDS011;34315;50.150;11.070;2023-12-04T08:18:34;22.90;;;11.10;;
48522;SDS011;34315;50.150;11.070;2023-12-04T08:23:35;23.35;;;10.55;;
48522;SDS011;34315;50.150;11.070;2023-12-04T08:28:36;21.58;;;9.77;;
48522;SDS011;34315;50.150;11.070;2023-12-04T08:33:38;24.55;;;10.38;;
48522;SDS011;34315;50.150;11.070;2023-12-04T08:38:39;24.73;;;11.35;;
48522;SDS011;34315;50.150;11.070;2023-12-04T08:43:40;22.33;;;10.85;;
48522;SDS011;34315;50.150;11.070;2023-12-04T08:48:41;20.33;;;9.82;;
48522;SDS011;34315;50.150;11.070;2023-12-04T08:53:42;21.63;;;10.15;;
48522;SDS011;34315;50.150;11.070;2023-12-04T08:58:43;21.63;;;9.70;;
48522;SDS011;34315;50.150;11.070;2023-12-04T09:03:45;18.30;;;9.60;;
48522;SDS011;34315;50.150;11.070;2023-12-04T09:08:46;19.52;;;9.07;;
48522;SDS011;34315;50.150;11.070;2023-12-04T09:13:47;18.42;;;9.23;;
48522;SDS011;34315;50.150;11.070;2023-12-04T09:18:48;17.33;;;8.70;;
48522;SDS011;34315;50.150;11.070;2023-12-04T09:23:49;18.33;;;8.88;;
48522;SDS011;34315;50.150;11.070;2023-12-04T09:28:50;15.13;;;7.57;;
48522;SDS011;34315;50.150;11.070;2023-12-04T09:33:51;17.95;;;7.65;;
48522;SDS011;34315;50.150;11.070;2023-12-04T09:38:52;17.42;;;7.32;;
48522;SDS011;34315;50.150;11.070;2023-12-04T09:43:53;17.77;;;8.95;;
48522;SDS011;34315;50.150;11.070;2023-12-04T09:48:55;14.38;;;7.60;;
48522;SDS011;34315;50.150;11.070;2023-12-04T09:53:57;14.68;;;7.55;;
48522;SDS011;34315;50.150;11.070;2023-12-04T09:59:01;17.10;;;7.80;;
48522;SDS011;34315;50.150;11.070;2023-12-04T10:04:03;16.33;;;7.55;;
48522;SDS011;34315;50.150;11.070;2023-12-04T10:09:07;16.58;;;7.28;;
48522;SDS011;34315;50.150;11.070;2023-12-04T10:14:15;15.50;;;7.40;;
48522;SDS011;34315;50.150;11.070;2023-12-04T10:24:27;13.65;;;6.47;;
48522;SDS011;34315;50.150;11.070;2023-12-04T10:29:43;13.82;;;6.45;;
48522;SDS011;34315;50.150;11.070;2023-12-04T10:34:44;13.43;;;6.72;;
48522;SDS011;34315;50.150;11.070;2023-12-04T10:39:47;15.60;;;7.30;;
48522;SDS011;34315;50.150;11.070;2023-12-04T10:44:49;15.15;;;6.72;;
48522;SDS011;34315;50.150;11.070;2023-12-04T10:49:50;12.00;;;5.53;;
48522;SDS011;34315;50.150;11.070;2023-12-04T10:54:52;12.88;;;6.28;;
48522;SDS011;34315;50.150;11.070;2023-12-04T10:59:57;13.70;;;6.85;;
48522;SDS011;34315;50.150;11.070;2023-12-04T11:05:01;11.70;;;5.93;;
48522;SDS011;34315;50.150;11.070;2023-12-04T11:10:05;11.38;;;5.72;;
48522;SDS011;34315;50.150;11.070;2023-12-04T11:15:09;13.13;;;6.45;;
48522;SDS011;34315;50.150;11.070;2023-12-04T11:20:13;10.57;;;5.57;;
48522;SDS011;34315;50.150;11.070;2023-12-04T11:25:17;12.93;;;6.03;;
48522;SDS011;34315;50.150;11.070;2023-12-04T11:30:19;11.55;;;5.50;;
48522;SDS011;34315;50.150;11.070;2023-12-04T11:35:20;10.43;;;5.53;;
48522;SDS011;34315;50.150;11.070;2023-12-04T11:40:22;9.20;;;5.18;;
48522;SDS011;34315;50.150;11.070;2023-12-04T11:45:23;9.52;;;4.68;;
48522;SDS011;34315;50.150;11.070;2023-12-04T11:50:24;11.88;;;5.15;;
48522;SDS011;34315;50.150;11.070;2023-12-04T11:55:25;10.45;;;5.38;;
48522;SDS011;34315;50.150;11.070;2023-12-04T12:00:26;8.65;;;4.68;;
48522;SDS011;34315;50.150;11.070;2023-12-04T12:05:28;10.80;;;4.47;;
48522;SDS011;34315;50.150;11.070;2023-12-04T12:10:29;10.38;;;5.18;;
48522;SDS011;34315;50.150;11.070;2023-12-04T12:15:32;11.15;;;5.43;;
48522;SDS011;34315;50.150;11.070;2023-12-04T12:20:36;11.95;;;5.63;;
48522;SDS011;34315;50.150;11.070;2023-12-04T12:25:37;10.40;;;5.05;;
48522;SDS011;34315;50.150;11.070;2023-12-04T12:30:39;10.43;;;5.00;;
48522;SDS011;34315;50.150;11.070;2023-12-04T12:35:40;10.32;;;5.25;;
48522;SDS011;34315;50.150;11.070;2023-12-04T12:40:42;11.98;;;5.57;;
48522;SDS011;34315;50.150;11.070;2023-12-04T12:45:43;9.50;;;5.07;;
48522;SDS011;34315;50.150;11.070;2023-12-04T12:50:48;8.77;;;4.93;;
48522;SDS011;34315;50.150;11.070;2023-12-04T12:55:49;11.07;;;5.73;;
48522;SDS011;34315;50.150;11.070;2023-12-04T13:00:50;12.50;;;5.85;;
48522;SDS011;34315;50.150;11.070;2023-12-04T13:05:51;12.02;;;5.90;;
48522;SDS011;34315;50.150;11.070;2023-12-04T13:10:52;12.57;;;6.50;;
48522;SDS011;34315;50.150;11.070;2023-12-04T13:15:53;9.40;;;4.90;;
48522;SDS011;34315;50.150;11.070;2023-12-04T13:20:55;8.18;;;3.78;;
48522;SDS011;34315;50.150;11.070;2023-12-04T13:25:57;11.23;;;5.30;;
48522;SDS011;34315;50.150;11.070;2023-12-04T13:30:58;8.02;;;3.33;;
48522;SDS011;34315;50.150;11.070;2023-12-04T13:35:59;13.07;;;4.07;;
48522;SDS011;34315;50.150;11.070;2023-12-04T13:41:00;8.00;;;3.97;;
48522;SDS011;34315;50.150;11.070;2023-12-04T13:46:09;9.27;;;4.50;;
48522;SDS011;34315;50.150;11.070;2023-12-04T13:51:11;7.38;;;3.75;;
48522;SDS011;34315;50.150;11.070;2023-12-04T13:56:13;9.95;;;3.70;;
48522;SDS011;34315;50.150;11.070;2023-12-04T14:01:42;12.57;;;3.92;;
48522;SDS011;34315;50.150;11.070;2023-12-04T14:06:43;6.07;;;2.75;;
48522;SDS011;34315;50.150;11.070;2023-12-04T14:11:44;6.03;;;2.83;;
48522;SDS011;34315;50.150;11.070;2023-12-04T14:16:46;6.47;;;3.40;;
48522;SDS011;34315;50.150;11.070;2023-12-04T14:21:49;6.38;;;3.33;;
48522;SDS011;34315;50.150;11.070;2023-12-04T14:26:51;7.20;;;3.40;;
48522;SDS011;34315;50.150;11.070;2023-12-04T14:31:54;6.65;;;3.30;;
48522;SDS011;34315;50.150;11.070;2023-12-04T14:36:55;8.10;;;3.83;;
48522;SDS011;34315;50.150;11.070;2023-12-04T14:41:56;7.93;;;3.72;;
48522;SDS011;34315;50.150;11.070;2023-12-04T14:46:57;8.05;;;3.70;;
48522;SDS011;34315;50.150;11.070;2023-12-04T14:51:58;6.93;;;3.40;;
48522;SDS011;34315;50.150;11.070;2023-12-04T14:57:01;7.45;;;3.00;;
48522;SDS011;34315;50.150;11.070;2023-12-04T15:02:28;5.05;;;2.30;;
48522;SDS011;34315;50.150;11.070;2023-12-04T15:07:48;7.25;;;3.25;;
48522;SDS011;34315;50.150;11.070;2023-12-04T15:13:04;7.72;;;2.63;;
48522;SDS011;34315;50.150;11.070;2023-12-04T15:18:05;6.72;;;2.75;;
48522;SDS011;34315;50.150;11.070;2023-12-04T15:23:25;6.32;;;3.17;;
48522;SDS011;34315;50.150;11.070;2023-12-04T15:28:27;9.50;;;3.50;;
48522;SDS011;34315;50.150;11.070;2023-12-04T15:33:28;11.85;;;3.83;;
48522;SDS011;34315;50.150;11.070;2023-12-04T15:38:31;7.00;;;3.47;;
48522;SDS011;34315;50.150;11.070;2023-12-04T15:43:32;6.25;;;3.05;;
48522;SDS011;34315;50.150;11.070;2023-12-04T15:48:33;6.55;;;3.47;;
48522;SDS011;34315;50.150;11.070;2023-12-04T15:53:34;6.32;;;2.97;;
48522;SDS011;34315;50.150;11.070;2023-12-04T15:58:36;6.25;;;3.03;;
48522;SDS011;34315;50.150;11.070;2023-12-04T16:03:37;6.07;;;3.13;;
48522;SDS011;34315;50.150;11.070;2023-12-04T16:08:38;6.18;;;3.40;;
48522;SDS011;34315;50.150;11.070;2023-12-04T16:13:39;7.25;;;3.55;;
48522;SDS011;34315;50.150;11.070;2023-12-04T16:18:40;6.78;;;3.20;;
48522;SDS011;34315;50.150;11.070;2023-12-04T16:23:42;6.38;;;3.00;;
48522;SDS011;34315;50.150;11.070;2023-12-04T16:28:43;8.48;;;3.58;;
48522;SDS011;34315;50.150;11.070;2023-12-04T16:33:44;8.88;;;4.03;;
48522;SDS011;34315;50.150;11.070;2023-12-04T16:38:45;7.97;;;3.83;;
48522;SDS011;34315;50.150;11.070;2023-12-04T16:43:46;7.82;;;3.97;;
48522;SDS011;34315;50.150;11.070;2023-12-04T16:48:47;11.57;;;4.00;;
48522;SDS011;34315;50.150;11.070;2023-12-04T16:53:48;8.00;;;3.92;;
48522;SDS011;34315;50.150;11.070;2023-12-04T16:58:49;8.73;;;4.03;;
48522;SDS011;34315;50.150;11.070;2023-12-04T17:03:50;9.07;;;4.18;;
48522;SDS011;34315;50.150;11.070;2023-12-04T17:08:51;8.68;;;3.47;;
48522;SDS011;34315;50.150;11.070;2023-12-04T17:13:53;7.63;;;3.55;;
48522;SDS011;34315;50.150;11.070;2023-12-04T17:18:54;7.85;;;4.30;;
48522;SDS011;34315;50.150;11.070;2023-12-04T17:23:55;8.30;;;3.47;;
48522;SDS011;34315;50.150;11.070;2023-12-04T17:28:56;7.43;;;3.60;;
48522;SDS011;34315;50.150;11.070;2023-12-04T17:33:58;8.07;;;3.72;;
48522;SDS011;34315;50.150;11.070;2023-12-04T17:38:59;8.90;;;4.20;;
48522;SDS011;34315;50.150;11.070;2023-12-04T17:44:00;8.45;;;4.13;;
48522;SDS011;34315;50.150;11.070;2023-12-04T17:49:01;7.57;;;3.88;;
48522;SDS011;34315;50.150;11.070;2023-12-04T17:54:02;8.68;;;4.40;;
48522;SDS011;34315;50.150;11.070;2023-12-04T17:59:03;10.82;;;4.50;;
48522;SDS011;34315;50.150;11.070;2023-12-04T18:04:04;9.90;;;4.65;;
48522;SDS011;34315;50.150;11.070;2023-12-04T18:09:05;10.55;;;5.00;;
48522;SDS011;34315;50.150;11.070;2023-12-04T18:14:08;10.68;;;4.90;;
48522;SDS011;34315;50.150;11.070;2023-12-04T18:19:09;7.63;;;3.75;;
48522;SDS011;34315;50.150;11.070;2023-12-04T18:24:11;8.27;;;4.45;;
48522;SDS011;34315;50.150;11.070;2023-12-04T18:29:12;8.60;;;4.18;;
48522;SDS011;34315;50.150;11.070;2023-12-04T18:34:13;7.75;;;4.03;;
48522;SDS011;34315;50.150;11.070;2023-12-04T18:39:14;9.18;;;4.63;;
48522;SDS011;34315;50.150;11.070;2023-12-04T18:44:16;9.32;;;4.43;;
48522;SDS011;34315;50.150;11.070;2023-12-04T18:49:18;7.32;;;4.03;;
48522;SDS011;34315;50.150;11.070;2023-12-04T18:54:20;9.73;;;4.60;;
48522;SDS011;34315;50.150;11.070;2023-12-04T18:59:21;9.32;;;4.30;;
48522;SDS011;34315;50.150;11.070;2023-12-04T19:04:22;9.02;;;4.35;;
48522;SDS011;34315;50.150;11.070;2023-12-04T19:09:23;10.05;;;4.50;;
48522;SDS011;34315;50.150;11.070;2023-12-04T19:14:25;9.88;;;4.60;;
48522;SDS011;34315;50.150;11.070;2023-12-04T19:19:26;9.57;;;4.60;;
48522;SDS011;34315;50.150;11.070;2023-12-04T19:24:27;10.25;;;4.88;;
48522;SDS011;34315;50.150;11.070;2023-12-04T19:29:28;8.18;;;4.18;;
48522;SDS011;34315;50.150;11.070;2023-12-04T19:34:29;8.80;;;4.13;;
48522;SDS011;34315;50.150;11.070;2023-12-04T19:39:30;8.75;;;4.60;;
48522;SDS011;34315;50.150;11.070;2023-12-04T19:44:31;8.30;;;4.32;;
48522;SDS011;34315;50.150;11.070;2023-12-04T19:49:32;10.63;;;4.18;;
48522;SDS011;34315;50.150;11.070;2023-12-04T19:54:35;6.68;;;3.40;;
48522;SDS011;34315;50.150;11.070;2023-12-04T19:59:36;9.13;;;3.80;;
48522;SDS011;34315;50.150;11.070;2023-12-04T20:04:41;8.77;;;4.18;;
48522;SDS011;34315;50.150;11.070;2023-12-04T20:09:46;11.52;;;4.68;;
48522;SDS011;34315;50.150;11.070;2023-12-04T20:14:47;13.55;;;4.78;;
48522;SDS011;34315;50.150;11.070;2023-12-04T20:19:51;12.05;;;4.82;;
48522;SDS011;34315;50.150;11.070;2023-12-04T20:24:53;8.75;;;4.55;;
48522;SDS011;34315;50.150;11.070;2023-12-04T20:29:54;10.23;;;4.57;;
48522;SDS011;34315;50.150;11.070;2023-12-04T20:34:55;10.18;;;4.93;;
48522;SDS011;34315;50.150;11.070;2023-12-04T20:39:56;10.73;;;4.53;;
48522;SDS011;34315;50.150;11.070;2023-12-04T20:44:57;9.05;;;4.43;;
48522;SDS011;34315;50.150;11.070;2023-12-04T20:49:59;10.32;;;5.03;;
48522;SDS011;34315;50.150;11.070;2023-12-04T20:55:00;9.88;;;4.85;;
48522;SDS011;34315;50.150;11.070;2023-12-04T21:00:01;16.23;;;5.45;;
48522;SDS011;34315;50.150;11.070;2023-12-04T21:05:04;10.85;;;4.75;;
48522;SDS011;34315;50.150;11.070;2023-12-04T21:10:06;10.02;;;5.38;;
48522;SDS011;34315;50.150;11.070;2023-12-04T21:15:08;11.25;;;5.65;;
48522;SDS011;34315;50.150;11.070;2023-12-04T21:20:09;8.93;;;4.57;;
48522;SDS011;34315;50.150;11.070;2023-12-04T21:25:10;9.82;;;4.40;;
48522;SDS011;34315;50.150;11.070;2023-12-04T21:30:12;12.02;;;4.93;;
48522;SDS011;34315;50.150;11.070;2023-12-04T21:35:14;8.77;;;4.22;;
48522;SDS011;34315;50.150;11.070;2023-12-04T21:40:16;10.77;;;4.15;;
48522;SDS011;34315;50.150;11.070;2023-12-04T21:45:17;11.88;;;5.15;;
48522;SDS011;34315;50.150;11.070;2023-12-04T21:50:19;11.75;;;5.13;;
48522;SDS011;34315;50.150;11.070;2023-12-04T21:55:20;11.32;;;5.05;;
48522;SDS011;34315;50.150;11.070;2023-12-04T22:00:21;10.10;;;4.68;;
48522;SDS011;34315;50.150;11.070;2023-12-04T22:05:26;12.40;;;5.63;;
48522;SDS011;34315;50.150;11.070;2023-12-04T22:10:27;14.57;;;5.88;;
48522;SDS011;34315;50.150;11.070;2023-12-04T22:15:28;11.00;;;5.88;;
48522;SDS011;34315;50.150;11.070;2023-12-04T22:20:29;12.32;;;5.20;;
48522;SDS011;34315;50.150;11.070;2023-12-04T22:25:30;11.77;;;5.45;;
48522;SDS011;34315;50.150;11.070;2023-12-04T22:30:31;15.88;;;5.82;;
48522;SDS011;34315;50.150;11.070;2023-12-04T22:35:32;12.20;;;5.30;;
48522;SDS011;34315;50.150;11.070;2023-12-04T22:40:33;12.40;;;5.40;;
48522;SDS011;34315;50.150;11.070;2023-12-04T22:45:35;14.48;;;6.13;;
48522;SDS011;34315;50.150;11.070;2023-12-04T22:50:36;9.15;;;4.85;;
48522;SDS011;34315;50.150;11.070;2023-12-04T22:55:37;14.43;;;5.53;;
48522;SDS011;34315;50.150;11.070;2023-12-04T23:00:38;12.45;;;5.75;;
48522;SDS011;34315;50.150;11.070;2023-12-04T23:05:39;11.27;;;5.10;;
48522;SDS011;34315;50.150;11.070;2023-12-04T23:10:40;12.20;;;5.30;;
48522;SDS011;34315;50.150;11.070;2023-12-04T23:15:41;10.85;;;5.43;;
48522;SDS011;34315;50.150;11.070;2023-12-04T23:20:42;12.30;;;5.80;;
48522;SDS011;34315;50.150;11.070;2023-12-04T23:25:43;11.13;;;5.20;;
48522;SDS011;34315;50.150;11.070;2023-12-04T23:30:45;14.40;;;6.20;;
48522;SDS011;34315;50.150;11.070;2023-12-04T23:35:47;9.85;;;5.47;;
48522;SDS011;34315;50.150;11.070;2023-12-04T23:40:48;12.40;;;6.28;;
48522;SDS011;34315;50.150;11.070;2023-12-04T23:45:49;10.52;;;5.20;;
48522;SDS011;34315;50.150;11.070;2023-12-04T23:50:50;11.52;;;6.10;;
48522;SDS011;34315;50.150;11.070;2023-12-04T23:55:51;14.73;;;5.70;;
